Time;durP1;ratioP1;P1;durP2;ratioP2;P2;SDS_P1;SDS_P2;PMS_P1;PMS_P2;Temp;Humidity;BMP_temperature;BMP_pressure;BME280_temperature;BME280_humidity;BME280_pressure;Samples;Min_cycle;Max_cycle;Signal;HPM_P1;HPM_P2
2022/11/01 00:36:09;;;;;;;39.85;28.08;;;;;;;28.99;73.44;100915.88;5031770;28;43685;-40
2022/11/01 00:38:40;;;;;;;28.60;25.48;;;;;;;28.96;73.84;100901.75;5013706;28;70621;-40
2022/11/01 00:41:11;;;;;;;31.90;25.85;;;;;;;28.75;73.54;100866.81;5011897;28;65752;-41
2022/11/01 00:43:42;;;;;;;29.67;26.13;;;;;;;29.16;73.50;100917.16;5010472;28;71257;-40
2022/11/01 00:46:13;;;;;;;27.33;24.33;;;;;;;29.31;73.51;100931.28;5001176;28;65237;-39
2022/11/01 00:48:43;;;;;;;27.17;24.33;;;;;;;29.20;72.99;100902.22;5006965;28;70335;-38
2022/11/01 00:51:14;;;;;;;31.10;23.33;;;;;;;29.48;72.65;100937.09;5011459;28;67026;-38
2022/11/01 00:53:44;;;;;;;25.15;22.75;;;;;;;29.37;72.54;100908.84;5009651;28;70249;-38
2022/11/01 00:56:14;;;;;;;25.25;22.90;;;;;;;29.56;72.10;100933.31;5006443;28;66233;-38
2022/11/01 00:58:45;;;;;;;27.02;22.90;;;;;;;29.68;71.82;100950.63;5010748;28;69667;-38
2022/11/01 01:01:15;;;;;;;28.50;23.13;;;;;;;29.73;71.89;100956.22;5007815;28;66486;-38
2022/11/01 01:03:46;;;;;;;25.92;23.17;;;;;;;29.81;71.95;100960.56;5011299;28;70005;-40
2022/11/01 01:06:16;;;;;;;24.30;21.92;;;;;;;29.79;71.66;100949.97;5013522;28;66794;-40
2022/11/01 01:08:49;;;;;;;24.92;22.25;;;;;;;29.91;71.41;100965.53;5013727;28;69296;-39
2022/11/01 01:11:20;;;;;;;24.90;22.02;;;;;;;29.95;70.69;100964.06;5012806;28;66703;-39
2022/11/01 01:13:50;;;;;;;25.90;22.42;;;;;;;29.97;70.58;100967.41;5013798;28;71132;-39
2022/11/01 01:16:21;;;;;;;23.65;21.50;;;;;;;29.95;70.87;100958.66;5013165;28;65717;-39
2022/11/01 01:18:51;;;;;;;23.80;21.25;;;;;;;29.94;70.42;100957.00;5000945;28;70388;-39
2022/11/01 01:21:22;;;;;;;24.30;21.27;;;;;;;30.10;70.52;100972.78;5012505;28;65951;-39
2022/11/01 01:23:53;;;;;;;23.85;21.42;;;;;;;30.05;70.23;100969.88;5012885;28;69981;-39
2022/11/01 01:26:23;;;;;;;23.02;20.73;;;;;;;30.15;69.86;100978.38;5013075;28;66242;-39
2022/11/01 01:28:54;;;;;;;23.73;20.92;;;;;;;30.14;69.88;100979.41;5013600;28;70555;-39
2022/11/01 01:31:24;;;;;;;22.50;20.55;;;;;;;30.23;69.74;100983.59;5011851;28;65297;-39
2022/11/01 01:33:57;;;;;;;21.73;19.45;;;;;;;29.82;69.35;100910.88;5013652;28;69987;-40
2022/11/01 01:36:27;;;;;;;20.70;18.80;;;;;;;30.28;70.05;100988.34;5003145;28;66658;-40
2022/11/01 01:38:58;;;;;;;21.77;19.80;;;;;;;30.30;69.37;100988.16;4998140;28;70235;-39
2022/11/01 01:44:47;;;;;;;21.58;19.52;;;;;;;30.30;69.15;100994.38;4997698;28;70201;-39
2022/11/01 01:47:21;;;;;;;23.70;18.75;;;;;;;30.20;69.14;100956.94;4997997;28;66015;-38
2022/11/01 01:50:06;;;;;;;20.88;18.88;;;;;;;30.35;68.77;100986.47;4997181;28;69617;-40
2022/11/01 01:53:15;;;;;;;19.83;17.98;;;;;;;30.33;69.08;100990.41;4999651;28;66709;-39
2022/11/01 01:55:54;;;;;;;19.48;17.80;;;;;;;30.48;68.84;100996.41;4980679;28;69137;-39
2022/11/01 01:58:32;;;;;;;19.75;18.02;;;;;;;30.41;68.45;100984.75;4999272;28;65787;-41
2022/11/01 02:01:02;;;;;;;20.08;18.10;;;;;;;30.51;68.53;100995.97;4999337;28;68568;-39
2022/11/01 02:03:34;;;;;;;18.95;17.35;;;;;;;30.08;68.37;100922.63;4997859;28;65471;-38
2022/11/01 02:06:17;;;;;;;18.38;16.67;;;;;;;30.57;67.94;101011.34;4993754;28;69911;-39
2022/11/01 02:08:48;;;;;;;;;;;;;;;30.25;68.39;101003.13;4998440;28;66297;-38
2022/11/01 02:11:21;;;;;;;18.25;16.50;;;;;;;30.54;68.26;100995.53;4994746;28;68984;-39
2022/11/01 02:13:52;;;;;;;17.42;16.13;;;;;;;30.49;68.55;100979.09;5000085;28;66383;-39
2022/11/01 02:16:36;;;;;;;18.33;16.65;;;;;;;30.64;68.11;101005.91;4997215;28;71614;-39
2022/11/01 02:19:43;;;;;;;18.20;16.65;;;;;;;30.61;67.91;100999.03;5000002;28;66267;-39
2022/11/01 02:22:37;;;;;;;16.48;15.23;;;;;;;30.62;66.95;100998.00;4987084;28;70458;-39
2022/11/01 02:25:17;;;;;;;17.55;16.23;;;;;;;30.71;67.38;100998.59;4998679;28;66566;-39
2022/11/01 02:27:59;;;;;;;17.33;15.95;;;;;;;30.76;67.84;100992.50;4997860;28;69852;-39
2022/11/01 02:30:38;;;;;;;;;;;;;;;30.46;67.90;100991.19;4998709;28;68089;-39
2022/11/01 02:33:23;;;;;;;16.45;15.00;;;;;;;30.75;66.43;100985.44;4998355;28;69217;-40
2022/11/01 02:36:05;;;;;;;17.40;16.20;;;;;;;30.78;66.66;100985.00;4998671;28;66931;-39
2022/11/01 02:38:35;;;;;;;;;;;;;;;30.55;67.09;100996.38;4988978;28;69311;-39
2022/11/01 02:41:15;;;;;;;16.65;14.90;;;;;;;30.39;67.19;100905.66;4994707;28;66082;-40
2022/11/01 02:43:55;;;;;;;17.75;16.27;;;;;;;30.42;66.70;100905.22;4992891;28;70405;-41
2022/11/01 02:49:21;;;;;;;16.58;15.20;;;;;;;30.95;67.00;100988.88;4998659;28;70257;-39
2022/11/01 02:51:53;;;;;;;17.85;16.20;;;;;;;31.00;66.59;100982.81;4994669;28;66554;-40
2022/11/01 02:54:31;;;;;;;16.48;15.23;;;;;;;30.99;65.94;100976.56;4992120;28;70251;-39
2022/11/01 02:57:22;;;;;;;17.83;16.30;;;;;;;30.98;65.89;100969.50;4996056;28;65770;-38
2022/11/01 03:00:00;;;;;;;17.42;16.10;;;;;;;31.05;66.09;100972.97;4996139;28;69627;-39
2022/11/01 03:02:43;;;;;;;17.48;15.77;;;;;;;30.94;65.09;100952.84;4993471;28;65223;-39
2022/11/01 03:05:30;;;;;;;18.73;16.88;;;;;;;31.10;65.56;100972.31;4997352;28;70438;-39
2022/11/01 03:08:08;;;;;;;16.85;15.48;;;;;;;31.15;65.96;100970.63;4995416;28;66597;-39
2022/11/01 03:10:45;;;;;;;17.10;15.70;;;;;;;31.17;65.64;100967.66;4996027;28;69519;-38
2022/11/01 03:13:31;;;;;;;17.33;15.95;;;;;;;31.16;65.16;100956.00;4994251;28;66525;-39
2022/11/01 03:16:24;;;;;;;16.27;15.07;;;;;;;31.16;64.93;100956.00;4996365;28;69609;-39
2022/11/01 03:19:12;;;;;;;17.33;15.68;;;;;;;31.25;64.84;100953.84;4992352;28;65319;-40
2022/11/01 03:22:03;;;;;;;16.63;15.38;;;;;;;31.19;64.57;100962.03;4996122;28;69227;-38
2022/11/01 03:25:02;;;;;;;17.38;15.90;;;;;;;30.79;65.16;100878.34;4988346;28;66661;-39
2022/11/01 03:27:50;;;;;;;16.38;15.05;;;;;;;31.27;65.12;100940.09;4996946;28;71880;-39
2022/11/01 03:30:21;;;;;;;16.98;15.40;;;;;;;31.22;65.70;100926.38;4977848;28;66268;-41
2022/11/01 03:32:55;;;;;;;16.98;15.70;;;;;;;31.41;65.21;100947.09;4995175;28;69724;-39
2022/11/01 03:35:37;;;;;;;16.25;14.95;;;;;;;31.40;64.41;100937.31;4986760;28;65767;-38
2022/11/01 03:38:09;;;;;;;;;;;;;;;31.14;65.09;100928.28;4995207;28;70237;-39
2022/11/01 03:40:45;;;;;;;16.75;14.95;;;;;;;31.00;65.25;100852.78;4995183;28;66623;-40
2022/11/01 03:43:18;;;;;;;16.42;15.13;;;;;;;31.49;65.20;100927.81;4993255;28;70981;-39
2022/11/01 03:45:58;;;;;;;16.88;15.77;;;;;;;31.51;65.22;100916.72;4992284;28;65739;-38
2022/11/01 03:48:28;;;;;;;18.08;16.38;;;;;;;31.55;65.05;100910.66;4995071;28;70524;-40
2022/11/01 03:50:59;;;;;;;17.15;15.70;;;;;;;31.57;64.98;100903.13;4997456;28;65631;-40
2022/11/01 03:53:31;;;;;;;16.75;15.57;;;;;;;31.60;64.50;100894.53;4992728;28;70036;-39
2022/11/01 03:56:02;;;;;;;16.75;15.07;;;;;;;31.63;64.69;100887.03;4996316;28;66558;-38
2022/11/01 03:58:43;;;;;;;18.13;16.48;;;;;;;31.65;64.54;100876.75;4990432;28;69357;-40
2022/11/01 04:01:15;;;;;;;17.60;15.98;;;;;;;30.82;64.56;100737.13;4995005;28;66622;-38
2022/11/01 04:03:46;;;;;;;17.45;15.93;;;;;;;31.69;64.83;100864.41;4990115;28;70010;-39
2022/11/01 04:06:16;;;;;;;17.25;15.95;;;;;;;31.65;64.84;100855.91;4997117;28;65704;-39
2022/11/01 04:08:46;;;;;;;17.65;16.23;;;;;;;31.74;64.50;100870.81;4990785;28;69493;-39
2022/11/01 04:11:17;;;;;;;18.25;16.83;;;;;;;31.52;64.60;100818.91;4982385;28;66423;-38
2022/11/01 04:13:47;;;;;;;19.08;17.20;;;;;;;31.68;64.55;100833.75;4993631;28;70551;-40
2022/11/01 04:21:57;;;;;;;18.70;17.20;;;;;;;31.76;64.47;100830.75;4996752;28;65616;-39
2022/11/01 04:24:28;;;;;;;18.65;17.05;;;;;;;31.77;64.18;100818.81;4997052;28;70323;-39
2022/11/01 04:27:01;;;;;;;17.75;16.20;;;;;;;31.89;64.28;100824.31;4988141;28;66370;-39
2022/11/01 04:29:32;;;;;;;18.70;16.67;;;;;;;31.79;64.28;100810.47;4996517;28;70449;-39
2022/11/01 04:32:02;;;;;;;18.27;16.40;;;;;;;31.82;64.09;100808.13;4997305;28;66659;-39
2022/11/01 04:34:42;;;;;;;18.65;16.98;;;;;;;31.95;64.17;100818.00;4993055;28;70616;-39
2022/11/01 04:37:12;;;;;;;18.90;17.25;;;;;;;31.96;64.23;100808.81;4995914;28;65991;-40
2022/11/01 04:39:43;;;;;;;19.15;16.58;;;;;;;32.00;63.64;100815.41;4988513;28;69525;-39
2022/11/01 04:42:13;;;;;;;18.73;16.92;;;;;;;32.01;63.69;100817.09;4995648;28;66105;-39
2022/11/01 04:44:51;;;;;;;18.85;17.15;;;;;;;32.02;63.82;100807.06;4995547;28;70348;-40
2022/11/01 04:47:23;;;;;;;18.20;16.63;;;;;;;31.92;63.94;100779.66;4992764;28;66766;-39
2022/11/01 04:49:53;;;;;;;18.75;16.20;;;;;;;32.04;63.69;100805.78;4996668;28;70138;-40
2022/11/01 04:52:32;;;;;;;20.65;17.63;;;;;;;32.04;63.54;100785.97;4990664;28;65980;-40
2022/11/01 04:55:04;;;;;;;17.90;16.40;;;;;;;31.98;63.86;100785.00;4994126;28;70175;-39
2022/11/01 04:57:41;;;;;;;18.75;17.13;;;;;;;32.03;63.04;100776.97;4991201;28;66264;-39
2022/11/01 05:00:12;;;;;;;18.52;16.98;;;;;;;31.96;63.66;100759.16;4987266;28;70584;-39
2022/11/01 05:02:43;;;;;;;19.03;17.37;;;;;;;32.01;63.70;100760.13;4993796;28;64789;-40
2022/11/01 05:05:13;;;;;;;19.02;17.48;;;;;;;32.07;63.71;100765.66;4995572;28;69134;-39
2022/11/01 05:07:44;;;;;;;19.15;17.27;;;;;;;32.10;63.67;100759.78;4995415;28;66006;-39
2022/11/01 05:10:14;;;;;;;18.83;17.23;;;;;;;31.79;63.43;100705.53;4992634;28;70130;-39
2022/11/01 05:12:45;;;;;;;19.00;17.40;;;;;;;32.15;63.38;100751.75;5000185;28;67544;-39
2022/11/01 05:15:18;;;;;;;19.58;17.77;;;;;;;32.17;63.43;100749.66;4991810;28;70598;-39
2022/11/01 05:17:48;;;;;;;19.52;17.92;;;;;;;32.12;63.13;100730.53;4996230;28;65307;-40
2022/11/01 05:20:21;;;;;;;18.83;17.27;;;;;;;32.17;63.45;100733.38;4990607;28;68671;-39
2022/11/01 05:22:51;;;;;;;18.35;16.83;;;;;;;31.85;63.50;100671.22;4997628;28;65722;-39
2022/11/01 05:25:23;;;;;;;18.98;17.58;;;;;;;32.23;63.40;100721.56;5001428;28;69648;-39
2022/11/01 05:28:02;;;;;;;20.13;18.10;;;;;;;32.21;62.58;100715.56;4994902;28;65228;-39
2022/11/01 05:30:36;;;;;;;19.00;17.33;;;;;;;32.11;62.52;100685.47;4995623;28;69141;-39
2022/11/01 05:33:10;;;;;;;19.50;17.73;;;;;;;31.78;63.29;100632.50;4981715;28;66285;-39
2022/11/01 05:35:41;;;;;;;18.63;17.02;;;;;;;32.20;63.20;100695.72;4997438;28;70346;-39
2022/11/01 05:38:11;;;;;;;20.02;18.25;;;;;;;32.29;63.25;100696.22;4999057;28;67131;-39
2022/11/01 05:40:42;;;;;;;20.50;18.50;;;;;;;32.31;62.77;100691.38;4998041;28;69598;-41
2022/11/01 05:43:12;;;;;;;20.00;18.20;;;;;;;32.33;63.07;100691.16;4998774;28;65310;-40
2022/11/01 05:45:43;;;;;;;19.63;17.67;;;;;;;32.29;63.00;100677.22;4997651;28;70437;-38
2022/11/01 05:48:13;;;;;;;19.15;17.27;;;;;;;32.35;62.85;100689.03;4992533;28;66011;-40
2022/11/01 05:50:45;;;;;;;19.30;17.48;;;;;;;32.27;63.01;100663.06;4996446;28;71865;-40
2022/11/01 05:53:15;;;;;;;19.05;17.40;;;;;;;32.39;62.77;100665.78;4997513;28;66452;-39
2022/11/01 05:55:46;;;;;;;17.98;16.55;;;;;;;32.39;62.70;100666.59;4997803;28;70049;-39
2022/11/01 05:58:16;;;;;;;18.80;17.25;;;;;;;32.39;62.63;100657.63;4999849;28;65151;-40
2022/11/01 06:00:46;;;;;;;18.27;16.63;;;;;;;32.37;62.58;100652.44;4999112;28;70651;-39
2022/11/01 06:03:17;;;;;;;20.02;18.10;;;;;;;32.44;62.78;100650.44;4986424;28;65405;-40
2022/11/01 06:05:48;;;;;;;19.75;17.98;;;;;;;32.45;62.53;100641.22;4995089;28;70090;-39
2022/11/01 06:08:18;;;;;;;19.50;17.70;;;;;;;32.45;62.60;100638.50;4993206;28;66564;-39
2022/11/01 06:10:49;;;;;;;18.70;17.00;;;;;;;32.34;62.62;100628.47;4992130;28;70189;-39
2022/11/01 06:13:19;;;;;;;19.92;17.85;;;;;;;32.42;62.44;100628.13;4997774;28;65593;-39
2022/11/01 06:16:04;;;;;;;18.20;16.63;;;;;;;32.44;62.42;100642.28;4995759;28;70563;-39
2022/11/01 06:18:34;;;;;;;18.45;16.95;;;;;;;32.51;62.32;100634.03;4995659;28;66106;-39
2022/11/01 06:21:05;;;;;;;18.70;17.20;;;;;;;32.53;62.46;100633.81;4991242;28;70317;-39
2022/11/01 06:23:35;;;;;;;19.35;17.55;;;;;;;32.52;62.27;100632.16;4995108;28;65827;-39
2022/11/01 06:26:06;;;;;;;18.65;16.98;;;;;;;32.44;62.25;100611.59;4998565;28;69304;-39
2022/11/01 06:28:36;;;;;;;18.65;17.13;;;;;;;32.53;62.32;100625.66;4989755;28;66886;-40
2022/11/01 06:31:06;;;;;;;19.15;17.55;;;;;;;32.57;62.12;100613.25;4995177;28;68752;-40
2022/11/01 06:33:37;;;;;;;18.88;17.15;;;;;;;32.57;62.22;100610.53;4987844;28;66453;-39
2022/11/01 06:36:07;;;;;;;18.08;16.45;;;;;;;32.58;62.09;100598.63;4995957;28;70629;-39
2022/11/01 06:38:37;;;;;;;18.58;17.08;;;;;;;32.60;61.97;100602.75;4995277;28;66499;-40
2022/11/01 06:41:08;;;;;;;18.23;16.73;;;;;;;32.55;61.93;100593.69;4997801;28;70350;-39
2022/11/01 06:43:38;;;;;;;19.52;17.20;;;;;;;32.62;61.82;100605.22;4997130;28;66762;-39
2022/11/01 06:46:08;;;;;;;20.80;17.10;;;;;;;32.28;61.83;100539.84;4995755;28;69853;-39
2022/11/01 06:48:39;;;;;;;20.38;17.30;;;;;;;32.64;61.68;100594.94;4997360;28;66475;-39
2022/11/01 06:51:09;;;;;;;19.55;17.60;;;;;;;32.66;61.83;100588.22;4997772;28;70416;-39
2022/11/01 06:53:39;;;;;;;24.13;17.65;;;;;;;32.03;61.71;100494.81;4997337;28;65493;-39
2022/11/01 06:56:10;;;;;;;21.67;18.17;;;;;;;32.40;61.61;100532.53;4997189;28;70007;-39
2022/11/01 06:58:40;;;;;;;19.50;17.70;;;;;;;32.67;61.72;100576.28;4995074;28;65802;-39
2022/11/01 07:01:10;;;;;;;19.52;17.45;;;;;;;32.66;61.55;100579.25;5009942;28;70486;-39
2022/11/01 07:03:41;;;;;;;24.50;19.10;;;;;;;32.60;61.50;100553.88;4998494;28;66355;-40
2022/11/01 07:06:11;;;;;;;20.40;17.05;;;;;;;32.73;61.50;100574.50;4998673;28;70639;-39
2022/11/01 07:08:41;;;;;;;23.15;17.63;;;;;;;32.67;61.27;100559.16;4997338;28;66165;-40
2022/11/01 07:11:12;;;;;;;19.63;17.80;;;;;;;32.72;61.59;100562.00;4992369;28;69597;-40
2022/11/01 07:13:42;;;;;;;22.20;17.08;;;;;;;32.35;61.21;100502.56;4988265;28;65177;-41
2022/11/01 07:16:13;;;;;;;18.10;16.40;;;;;;;32.64;61.30;100537.94;4983681;28;70333;-39
2022/11/01 07:18:44;;;;;;;18.60;16.95;;;;;;;32.66;61.16;100536.63;4998384;28;65744;-38
2022/11/01 07:21:14;;;;;;;19.13;16.92;;;;;;;32.56;61.26;100519.28;4996391;28;69779;-38
2022/11/01 07:23:44;;;;;;;18.52;16.60;;;;;;;32.78;61.23;100542.00;4996548;28;65395;-38
2022/11/01 07:26:14;;;;;;;19.90;17.17;;;;;;;32.74;61.16;100537.31;4994242;28;69655;-39
2022/11/01 07:28:45;;;;;;;18.17;16.35;;;;;;;32.80;61.16;100542.59;4994707;28;66242;-40
2022/11/01 07:31:16;;;;;;;20.55;17.38;;;;;;;32.81;61.11;100538.81;4995249;28;69855;-38
2022/11/01 07:33:46;;;;;;;24.70;17.52;;;;;;;32.77;60.98;100521.34;4994403;28;66497;-38
2022/11/01 07:36:17;;;;;;;18.60;16.80;;;;;;;32.79;60.69;100523.81;4987144;28;70036;-39
2022/11/01 07:38:47;;;;;;;18.92;17.30;;;;;;;32.83;60.92;100525.00;4996507;28;65082;-39
2022/11/01 07:41:18;;;;;;;17.88;16.08;;;;;;;32.79;61.28;100516.50;4996241;28;70182;-40
2022/11/01 07:43:48;;;;;;;19.58;17.20;;;;;;;32.88;61.04;100534.06;4995851;28;66473;-39
2022/11/01 07:46:18;;;;;;;18.10;16.58;;;;;;;32.89;60.77;100535.72;4998159;28;69237;-38
2022/11/01 07:48:50;;;;;;;18.52;16.63;;;;;;;32.84;61.08;100523.91;4997167;28;65551;-39
2022/11/01 07:51:20;;;;;;;17.63;16.08;;;;;;;32.55;60.88;100468.78;4979029;28;68953;-40
2022/11/01 07:53:51;;;;;;;17.33;15.82;;;;;;;32.80;60.99;100504.56;4996894;28;65048;-39
2022/11/01 07:56:22;;;;;;;20.33;17.35;;;;;;;32.73;60.77;100487.59;4996845;28;70367;-39
2022/11/01 07:58:52;;;;;;;18.38;16.63;;;;;;;32.83;60.62;100505.97;4990850;28;65466;-40
2022/11/01 08:01:26;;;;;;;17.88;16.13;;;;;;;32.88;60.74;100517.78;4996813;28;69788;-39
2022/11/01 08:03:56;;;;;;;18.88;17.20;;;;;;;32.88;60.53;100512.34;4997999;28;66349;-39
2022/11/01 08:06:27;;;;;;;24.03;17.17;;;;;;;32.88;60.68;100506.91;4989510;28;71428;-39
2022/11/01 08:08:57;;;;;;;17.15;15.60;;;;;;;32.93;60.55;100515.16;4995582;28;66485;-38
2022/11/01 08:11:28;;;;;;;18.80;16.92;;;;;;;32.87;60.57;100507.94;4992222;28;70318;-41
2022/11/01 08:13:58;;;;;;;17.83;16.15;;;;;;;32.93;60.45;100517.88;4990578;28;65982;-40
2022/11/01 08:16:34;;;;;;;18.35;15.88;;;;;;;32.96;60.49;100515.72;5009898;28;69745;-38
2022/11/01 08:19:04;;;;;;;18.63;16.70;;;;;;;32.87;60.35;100499.81;4995848;28;65710;-39
2022/11/01 08:21:35;;;;;;;18.15;16.33;;;;;;;32.94;60.27;100515.97;4992851;28;71017;-38
2022/11/01 08:24:06;;;;;;;17.80;16.08;;;;;;;32.91;60.14;100511.84;4991487;28;65797;-40
2022/11/01 08:26:37;;;;;;;18.75;16.08;;;;;;;32.86;60.26;100506.31;4992543;28;69483;-38
2022/11/01 08:29:07;;;;;;;17.77;15.77;;;;;;;32.95;60.16;100520.31;4990820;28;66081;-39
2022/11/01 08:31:40;;;;;;;17.75;16.05;;;;;;;32.94;59.96;100516.78;4995339;28;69016;-40
2022/11/01 08:34:11;;;;;;;18.98;15.65;;;;;;;32.96;60.12;100513.00;4990875;28;65757;-39
2022/11/01 08:36:45;;;;;;;17.52;15.48;;;;;;;32.90;60.05;100501.22;4993533;28;69752;-40
2022/11/01 08:39:15;;;;;;;20.90;15.85;;;;;;;32.96;59.83;100508.41;4991596;28;64680;-40
2022/11/01 08:41:48;;;;;;;17.42;15.65;;;;;;;32.18;59.79;100387.66;4994949;28;70560;-39
2022/11/01 08:44:19;;;;;;;21.13;16.77;;;;;;;32.96;60.19;100513.00;4994657;28;66197;-39
2022/11/01 08:46:54;;;;;;;17.70;15.50;;;;;;;32.85;59.79;100493.81;4998821;28;70684;-39
2022/11/01 08:49:24;;;;;;;22.35;16.20;;;;;;;32.97;59.94;100525.53;4997307;28;66364;-39
2022/11/01 08:51:55;;;;;;;18.15;16.35;;;;;;;32.98;59.87;100519.03;4998883;28;69399;-39
2022/11/01 08:54:26;;;;;;;21.90;16.13;;;;;;;32.93;59.88;100517.03;4996269;28;66599;-39
2022/11/01 08:56:56;;;;;;;18.80;16.55;;;;;;;32.91;59.92;100511.84;4998952;28;69597;-39
2022/11/01 08:59:26;;;;;;;19.85;16.83;;;;;;;32.88;60.00;100506.91;5014671;28;65986;-39
2022/11/01 09:02:02;;;;;;;20.33;16.08;;;;;;;32.98;59.97;100528.00;4997891;28;69689;-40
2022/11/01 09:04:33;;;;;;;18.35;16.48;;;;;;;32.77;59.72;100502.34;4997285;28;65101;-40
2022/11/01 09:07:03;;;;;;;17.73;15.43;;;;;;;32.89;59.61;100516.69;4994286;28;69490;-39
2022/11/01 09:09:33;;;;;;;17.40;15.80;;;;;;;32.90;59.92;100523.78;4990382;28;65832;-40
2022/11/01 09:12:05;;;;;;;20.15;16.08;;;;;;;32.94;59.91;100543.13;4998995;28;70598;-39
2022/11/01 09:14:42;;;;;;;19.80;16.13;;;;;;;32.96;59.69;100545.59;4991976;28;65419;-40
2022/11/01 09:17:12;;;;;;;19.17;15.93;;;;;;;32.90;59.87;100542.81;4998171;28;70432;-41
2022/11/01 09:19:42;;;;;;;17.52;15.73;;;;;;;32.86;59.82;100541.63;4994134;28;66553;-40
2022/11/01 09:22:12;;;;;;;17.80;15.95;;;;;;;32.84;59.91;100538.31;4996609;28;70621;-39
2022/11/01 09:24:43;;;;;;;16.67;15.13;;;;;;;32.94;59.60;100560.25;4998784;28;65688;-41
2022/11/01 09:27:15;;;;;;;19.00;14.93;;;;;;;32.90;59.74;100556.41;4993466;28;70885;-39
2022/11/01 09:29:45;;;;;;;22.00;16.88;;;;;;;32.81;59.67;100567.88;4995307;28;65882;-40
2022/11/01 09:32:20;;;;;;;18.63;16.73;;;;;;;32.70;60.71;100569.53;5000070;28;70201;-39
2022/11/01 09:34:50;;;;;;;30.35;16.65;;;;;;;32.59;61.23;100579.38;4998064;28;66686;-40
2022/11/01 09:37:21;;;;;;;19.25;15.80;;;;;;;32.53;61.56;100582.22;4989404;28;69997;-40
2022/11/01 09:39:51;;;;;;;30.48;17.17;;;;;;;32.44;61.76;100593.41;4999817;28;65724;-39
2022/11/01 09:42:33;;;;;;;30.95;17.27;;;;;;;31.94;61.93;100526.06;4991092;28;69865;-38
2022/11/01 09:45:14;;;;;;;18.10;15.85;;;;;;;31.54;62.47;100474.41;4992203;28;65404;-39
2022/11/01 09:47:57;;;;;;;23.77;17.38;;;;;;;32.25;62.19;100627.19;4998045;28;70611;-38
2022/11/01 09:50:45;;;;;;;30.73;18.80;;;;;;;32.18;62.55;100618.31;4998920;28;65703;-39
2022/11/01 09:53:52;;;;;;;27.60;17.48;;;;;;;32.14;62.80;100619.88;4993046;28;69365;-39
2022/11/01 09:57:06;;;;;;;29.10;18.48;;;;;;;31.61;62.97;100540.16;4995824;28;64694;-40
2022/11/01 09:59:49;;;;;;;36.40;18.60;;;;;;;32.12;62.71;100622.78;4991330;28;69604;-40
2022/11/01 10:02:58;;;;;;;30.38;20.63;;;;;;;31.55;63.42;100539.22;4998333;28;66589;-39
2022/11/01 10:05:50;;;;;;;44.40;21.67;;;;;;;31.91;63.71;100605.22;4997432;28;70175;-38
2022/11/01 10:08:20;;;;;;;35.55;22.30;;;;;;;32.04;64.11;100625.88;4989876;28;65824;-39
2022/11/01 10:11:04;;;;;;;32.75;22.00;;;;;;;32.04;64.38;100625.88;4988817;28;70151;-39
2022/11/01 10:13:42;;;;;;;27.17;22.83;;;;;;;32.03;64.69;100638.59;4993251;28;65676;-40
2022/11/01 10:16:40;;;;;;;33.63;23.13;;;;;;;31.93;65.16;100635.66;4990001;28;70276;-38
2022/11/01 10:19:14;;;;;;;39.28;23.63;;;;;;;31.64;65.46;100584.97;4992653;28;65831;-39
2022/11/01 10:21:48;;;;;;;35.30;23.75;;;;;;;31.59;65.93;100580.22;4994433;28;70414;-39
2022/11/01 10:24:24;;;;;;;36.60;23.65;;;;;;;31.56;66.19;100565.25;4996400;28;65984;-39
2022/11/01 10:27:19;;;;;;;55.17;24.30;;;;;;;32.00;66.51;100640.97;4994662;28;70468;-40
2022/11/01 10:30:08;;;;;;;44.38;24.67;;;;;;;31.61;66.38;100572.69;4993745;28;65654;-40
2022/11/01 10:33:20;;;;;;;43.42;24.13;;;;;;;32.03;66.66;100660.31;4995900;28;68695;-40
2022/11/01 10:35:59;;;;;;;45.15;23.60;;;;;;;31.71;66.70;100588.41;4975345;28;65124;-39
2022/11/01 10:38:55;;;;;;;31.17;22.83;;;;;;;32.23;66.58;100664.56;4976299;28;70027;-39
2022/11/01 10:41:50;;;;;;;40.92;22.70;;;;;;;32.13;66.25;100659.75;4992952;28;66162;-40
2022/11/01 10:44:23;;;;;;;54.08;23.52;;;;;;;32.26;66.81;100680.38;4998289;28;70067;-40
2022/11/01 10:46:54;;;;;;;48.85;23.38;;;;;;;32.23;67.54;100684.44;4994763;28;66812;-38
2022/11/01 10:49:33;;;;;;;42.17;21.45;;;;;;;32.31;66.14;100688.66;4996217;28;70024;-39
2022/11/01 10:52:52;;;;;;;28.40;20.20;;;;;;;32.23;66.38;100691.72;4998177;28;66355;-39
2022/11/01 10:55:32;;;;;;;30.25;20.15;;;;;;;31.89;65.83;100623.56;4991230;28;69988;-38
2022/11/01 10:58:30;;;;;;;26.70;20.63;;;;;;;31.86;65.42;100615.91;4993880;28;65772;-40
2022/11/01 11:01:03;;;;;;;24.35;19.60;;;;;;;32.35;65.26;100697.19;4998513;28;69408;-39
2022/11/01 11:03:33;;;;;;;27.73;20.20;;;;;;;32.36;65.39;100702.34;4991915;28;66796;-38
2022/11/01 11:06:10;;;;;;;27.63;20.30;;;;;;;32.05;65.36;100660.91;4996367;28;69458;-39
2022/11/01 11:08:47;;;;;;;24.88;19.35;;;;;;;32.29;65.41;100688.09;4996312;28;65730;-39
2022/11/01 11:11:21;;;;;;;24.48;20.13;;;;;;;31.96;65.05;100637.91;4985928;28;70118;-39
2022/11/01 11:13:54;;;;;;;23.08;19.02;;;;;;;32.37;65.26;100712.16;4997613;28;66160;-41
2022/11/01 11:16:43;;;;;;;23.20;18.42;;;;;;;31.88;65.32;100643.63;4998300;28;69996;-40
2022/11/01 11:19:18;;;;;;;26.10;19.23;;;;;;;32.36;64.94;100715.13;4996780;28;66347;-39
2022/11/01 11:21:51;;;;;;;20.13;17.58;;;;;;;31.88;65.02;100643.63;4997206;28;70541;-39
2022/11/01 11:24:42;;;;;;;22.23;18.08;;;;;;;32.36;64.90;100739.53;4992293;28;66495;-38
2022/11/01 11:27:27;;;;;;;21.77;18.13;;;;;;;31.73;64.87;100645.94;4993386;28;69676;-38
2022/11/01 11:30:07;;;;;;;19.90;17.58;;;;;;;32.16;64.81;100713.56;4995187;28;66665;-38
2022/11/01 11:32:45;;;;;;;19.73;17.73;;;;;;;31.47;64.88;100592.94;4991019;28;69289;-38
2022/11/01 11:35:20;;;;;;;19.55;17.33;;;;;;;31.86;64.66;100662.00;4994697;28;66491;-39
2022/11/01 11:37:57;;;;;;;21.10;18.55;;;;;;;32.31;64.83;100739.41;4994533;28;69569;-39
2022/11/01 11:40:39;;;;;;;24.40;18.52;;;;;;;32.30;64.98;100744.03;4996313;28;66451;-39
2022/11/01 11:43:30;;;;;;;19.55;17.60;;;;;;;32.23;64.93;100754.13;4997510;28;70763;-39
2022/11/01 11:46:07;;;;;;;20.20;18.27;;;;;;;32.26;64.84;100754.53;4994608;28;66066;-38
2022/11/01 11:49:00;;;;;;;20.92;17.90;;;;;;;31.75;65.01;100692.66;4996221;28;69961;-39
2022/11/01 11:51:32;;;;;;;;;;;;;;;31.95;66.05;100763.72;4992922;28;66506;-40
2022/11/01 11:54:15;;;;;;;20.38;18.40;;;;;;;32.22;65.04;100766.06;4996627;28;69822;-40
2022/11/01 11:56:46;;;;;;;20.05;18.23;;;;;;;32.21;65.17;100765.25;5001570;28;66408;-39
2022/11/01 11:59:27;;;;;;;21.08;19.08;;;;;;;32.20;65.06;100773.59;4992317;28;70192;-40
2022/11/01 12:02:00;;;;;;;19.50;17.95;;;;;;;32.11;64.95;100764.16;4995437;28;67189;-39
2022/11/01 12:04:41;;;;;;;20.48;18.33;;;;;;;32.15;64.81;100789.75;4995217;28;69456;-39
2022/11/01 12:07:31;;;;;;;19.38;17.45;;;;;;;32.17;64.98;100798.50;4994677;28;66902;-39
2022/11/01 12:10:05;;;;;;;20.45;18.25;;;;;;;31.95;64.83;100757.47;4992498;28;70728;-39
2022/11/01 12:12:53;;;;;;;28.45;17.40;;;;;;;32.03;66.54;100798.69;4991925;28;65680;-40
2022/11/01 12:15:32;;;;;;;24.15;20.00;;;;;;;31.86;66.59;100775.13;4976643;28;69949;-38
2022/11/01 12:18:17;;;;;;;29.75;19.80;;;;;;;31.53;67.08;100736.53;4995093;28;66378;-41
2022/11/01 12:20:51;;;;;;;22.77;20.27;;;;;;;31.47;67.67;100739.34;4981460;28;70893;-38
2022/11/01 12:23:35;;;;;;;20.90;18.63;;;;;;;31.79;68.18;100808.59;4996647;28;66505;-40
2022/11/01 12:26:09;;;;;;;21.30;18.35;;;;;;;31.85;68.49;100833.97;5008717;28;69754;-39
2022/11/01 12:28:55;;;;;;;20.58;18.40;;;;;;;31.81;68.83;100824.63;4998583;28;66569;-39
2022/11/01 12:31:27;;;;;;;26.23;17.65;;;;;;;31.81;68.62;100838.19;4997326;28;70334;-40
2022/11/01 12:34:24;;;;;;;32.33;19.60;;;;;;;31.70;69.04;100834.34;4998607;28;65469;-40
2022/11/01 12:37:20;;;;;;;26.30;18.55;;;;;;;31.34;69.32;100772.81;4994439;28;69032;-38